Time;durP1;ratioP1;P1;durP2;ratioP2;P2;SDS_P1;SDS_P2;PMS_P1;PMS_P2;Temp;Humidity;BMP_temperature;BMP_pressure;BME280_temperature;BME280_humidity;BME280_pressure;Samples;Min_cycle;Max_cycle;Signal;HPM_P1;HPM_P2
2022/01/02 00:00:06;;;;;;;8.75;6.35;;;;;;;10.88;71.41;101941.03;5047077;28;20060;-91
2022/01/02 00:02:50;;;;;;;8.50;6.25;;;;;;;10.74;70.96;101916.56;5034827;28;20038;-92
2022/01/02 00:05:20;;;;;;;9.02;6.38;;;;;;;10.83;71.46;101942.44;5015551;28;20046;-90
2022/01/02 00:08:05;;;;;;;8.45;6.25;;;;;;;10.76;71.30;101925.41;5015981;28;20083;-91
2022/01/02 00:10:52;;;;;;;8.05;6.10;;;;;;;10.67;71.16;101902.16;4999400;28;20025;-92
2022/01/02 00:13:35;;;;;;;8.52;6.13;;;;;;;10.89;71.05;101948.09;5009743;28;20124;-92
2022/01/02 00:16:07;;;;;;;10.30;5.70;;;;;;;10.87;71.35;101949.69;5015713;28;20034;-91
2022/01/02 00:19:03;;;;;;;8.98;6.57;;;;;;;10.73;71.05;101925.19;5032518;28;20025;-92
2022/01/02 00:21:33;;;;;;;7.72;5.80;;;;;;;10.91;71.38;101959.56;5016891;28;20126;-91
2022/01/02 00:24:06;;;;;;;9.18;6.13;;;;;;;10.67;71.18;101925.66;5016447;28;20124;-91
2022/01/02 00:26:43;;;;;;;7.20;5.65;;;;;;;10.78;71.17;101955.19;5017497;28;20090;-90
2022/01/02 00:29:17;;;;;;;8.32;6.35;;;;;;;10.85;70.99;101957.41;5032435;28;20041;-91
2022/01/02 00:32:20;;;;;;;8.18;6.18;;;;;;;10.91;71.20;101984.00;5016395;28;20029;-91
2022/01/02 00:35:03;;;;;;;8.82;5.93;;;;;;;10.83;71.27;101961.63;5021384;28;20036;-92
2022/01/02 00:37:35;;;;;;;7.90;5.97;;;;;;;10.83;70.99;101956.41;5032685;28;20033;-91
2022/01/02 00:40:05;;;;;;;8.95;6.20;;;;;;;10.52;71.54;101909.78;5016520;28;20496;-91
2022/01/02 00:42:37;;;;;;;7.25;5.72;;;;;;;10.86;71.17;101968.78;5031742;28;20034;-90
2022/01/02 00:45:13;;;;;;;7.90;6.00;;;;;;;10.90;71.05;101969.13;4998465;28;20061;-89
2022/01/02 00:48:12;;;;;;;8.38;6.13;;;;;;;10.91;71.04;101975.25;5008278;28;20037;-90
2022/01/02 00:50:42;;;;;;;7.97;6.10;;;;;;;10.24;71.17;101854.59;5036751;28;20044;-89
2022/01/02 00:53:10;;;;;;;7.65;5.88;;;;;;;10.85;71.21;101967.88;5032965;28;20080;-90
2022/01/02 00:55:36;;;;;;;8.55;5.97;;;;;;;10.79;71.01;101960.53;5016239;28;20030;-89
2022/01/02 00:58:05;;;;;;;8.00;5.68;;;;;;;10.91;70.97;101972.66;5025365;28;20021;-90
2022/01/02 01:00:33;;;;;;;7.90;5.88;;;;;;;10.85;71.38;101965.25;5013506;28;20045;-90
2022/01/02 01:03:05;;;;;;;9.32;6.00;;;;;;;10.74;71.26;101950.53;5041596;28;20487;-90
2022/01/02 01:05:33;;;;;;;8.45;6.05;;;;;;;10.88;71.34;101977.63;5016906;28;20036;-88
2022/01/02 01:08:04;;;;;;;8.52;6.28;;;;;;;10.57;71.13;101929.31;5032246;28;20073;-89
2022/01/02 01:10:36;;;;;;;7.05;5.43;;;;;;;10.91;71.11;101981.38;5017029;28;20541;-90
2022/01/02 01:13:04;;;;;;;8.40;5.90;;;;;;;10.68;71.04;101939.63;5017257;28;20403;-90
2022/01/02 01:15:31;;;;;;;8.30;5.85;;;;;;;10.91;71.21;101981.38;5027880;28;20026;-89
2022/01/02 01:17:58;;;;;;;8.30;6.03;;;;;;;10.94;70.79;101983.31;5017373;28;20451;-89
2022/01/02 01:20:42;;;;;;;7.20;5.78;;;;;;;10.86;70.86;101968.78;5000725;28;20032;-90
2022/01/02 01:23:15;;;;;;;8.32;5.78;;;;;;;10.92;71.04;101985.84;5001324;28;20068;-90
2022/01/02 01:25:58;;;;;;;7.38;5.57;;;;;;;10.94;71.37;101985.91;5001448;28;20037;-91
2022/01/02 01:28:28;;;;;;;8.90;6.38;;;;;;;10.84;71.20;101978.22;5017257;28;20067;-91
2022/01/02 01:30:56;;;;;;;8.13;5.90;;;;;;;10.79;71.33;101973.59;5035185;28;20026;-91
2022/01/02 01:33:40;;;;;;;8.25;6.32;;;;;;;10.94;71.07;101994.69;5000812;28;20028;-90
2022/01/02 01:36:12;;;;;;;7.93;5.80;;;;;;;10.88;71.25;101989.03;5016994;28;20068;-90
2022/01/02 01:38:38;;;;;;;7.60;5.60;;;;;;;10.83;71.48;101976.41;5017236;28;20032;-91
2022/01/02 01:41:20;;;;;;;7.32;5.70;;;;;;;10.74;71.30;101959.25;5000782;28;20041;-90
2022/01/02 01:44:07;;;;;;;8.02;5.65;;;;;;;10.83;71.28;101981.63;5000562;28;20107;-89
2022/01/02 01:46:33;;;;;;;8.80;5.82;;;;;;;10.86;71.27;101984.44;5014416;28;20041;-90
2022/01/02 01:48:59;;;;;;;;;;;;;;;11.00;70.80;101997.72;5017065;28;20029;-90
2022/01/02 01:51:25;;;;;;;7.60;5.43;;;;;;;10.88;71.07;101990.69;5016615;28;19919;-90
2022/01/02 01:53:56;;;;;;;7.82;5.07;;;;;;;10.92;71.19;101997.97;5016580;28;20025;-90
2022/01/02 01:56:24;;;;;;;7.40;5.45;;;;;;;10.88;71.34;101996.84;5034025;28;20597;-90
2022/01/02 01:58:50;;;;;;;7.95;5.90;;;;;;;10.62;71.33;101944.41;5032721;28;20042;-90
2022/01/02 02:01:16;;;;;;;7.55;5.25;;;;;;;10.79;71.24;101970.03;4999828;28;20026;-89
2022/01/02 02:03:43;;;;;;;9.00;5.97;;;;;;;10.82;71.12;101974.59;5000926;28;20040;-91
2022/01/02 02:06:09;;;;;;;7.20;5.80;;;;;;;10.75;71.25;101965.38;5020209;28;20029;-90
2022/01/02 02:08:36;;;;;;;7.57;5.40;;;;;;;10.61;71.11;101938.28;5016326;28;20033;-89
2022/01/02 02:11:03;;;;;;;8.23;6.05;;;;;;;10.93;71.48;101992.84;5035216;28;20024;-89
2022/01/02 02:13:30;;;;;;;7.80;5.72;;;;;;;10.83;71.00;101976.41;5035689;28;20114;-90
2022/01/02 02:15:59;;;;;;;7.03;5.30;;;;;;;10.63;71.24;101944.53;5018679;28;20024;-89
2022/01/02 02:18:28;;;;;;;7.35;5.63;;;;;;;10.70;71.39;101956.31;5019764;28;20479;-89
2022/01/02 02:20:55;;;;;;;6.50;5.40;;;;;;;10.77;71.27;101964.72;5035413;28;20065;-88
2022/01/02 02:23:21;;;;;;;8.52;6.00;;;;;;;10.79;71.41;101964.81;5034392;28;20028;-90
2022/01/02 02:25:57;;;;;;;7.43;5.68;;;;;;;10.86;71.24;101977.53;5048282;28;20090;-90
2022/01/02 02:28:26;;;;;;;6.95;5.60;;;;;;;10.98;71.16;101998.41;5015229;28;20029;-88
2022/01/02 02:30:55;;;;;;;7.22;5.43;;;;;;;10.91;70.85;101986.59;5015783;28;20029;-90
2022/01/02 02:33:24;;;;;;;7.43;5.63;;;;;;;10.68;71.37;101947.47;5015937;28;20040;-88
2022/01/02 02:35:52;;;;;;;6.90;5.43;;;;;;;10.97;71.17;102002.75;5047426;28;20107;-88
2022/01/02 02:38:18;;;;;;;7.85;5.60;;;;;;;10.97;71.18;102007.06;5034599;28;20052;-88
2022/01/02 02:40:46;;;;;;;8.13;5.50;;;;;;;10.68;71.12;101964.03;5018660;28;20082;-88
2022/01/02 02:52:03;;;;;;;7.78;5.60;;;;;;;10.97;71.08;102021.03;5026105;28;20090;-92
2022/01/02 02:55:11;;;;;;;6.65;5.18;;;;;;;10.98;71.08;102012.41;5016825;28;20396;-90
2022/01/02 02:57:38;;;;;;;7.00;5.15;;;;;;;10.98;71.10;102024.56;5015918;28;20037;-92
2022/01/02 03:00:21;;;;;;;6.93;5.40;;;;;;;10.80;71.21;101998.00;5013599;28;20502;-89
2022/01/02 03:03:00;;;;;;;7.00;5.57;;;;;;;10.75;70.96;101991.50;5018842;28;20112;-91
2022/01/02 03:05:26;;;;;;;6.75;5.40;;;;;;;10.80;71.17;101998.00;5018983;28;20047;-90
2022/01/02 03:08:00;;;;;;;7.82;5.72;;;;;;;10.87;71.04;102005.47;5000087;28;20034;-89
2022/01/02 03:10:26;;;;;;;7.90;5.88;;;;;;;10.83;71.33;102005.16;5027304;28;20052;-89
2022/01/02 03:12:52;;;;;;;7.13;5.38;;;;;;;10.83;71.41;102000.81;5031944;28;20029;-88
2022/01/02 03:15:17;;;;;;;6.82;5.47;;;;;;;10.69;71.13;101978.94;5013942;28;20064;-88
2022/01/02 03:17:48;;;;;;;7.15;5.47;;;;;;;10.79;71.17;102001.41;5018040;28;20032;-90
2022/01/02 03:20:23;;;;;;;8.00;5.75;;;;;;;10.97;71.35;102041.94;5002701;28;20513;-90
2022/01/02 03:22:48;;;;;;;9.63;5.82;;;;;;;10.77;71.38;102001.31;5015049;28;20037;-90
2022/01/02 03:25:14;;;;;;;7.65;5.68;;;;;;;10.74;71.53;102005.41;5014998;28;20032;-89
2022/01/02 03:27:43;;;;;;;6.75;5.30;;;;;;;10.85;71.53;102032.31;4998637;28;20072;-89
2022/01/02 03:30:12;;;;;;;8.30;5.70;;;;;;;10.95;71.25;102053.09;5014586;28;20030;-89
2022/01/02 03:32:40;;;;;;;7.57;5.50;;;;;;;10.58;71.05;101982.44;4998342;28;20039;-90
2022/01/02 03:35:11;;;;;;;7.82;5.70;;;;;;;10.85;71.23;102029.69;4998405;28;20023;-89
2022/01/02 03:37:38;;;;;;;7.40;5.60;;;;;;;10.69;71.25;101998.91;5034280;28;20112;-90
2022/01/02 03:40:07;;;;;;;8.43;5.97;;;;;;;10.91;71.56;102051.03;5027973;28;20040;-90
2022/01/02 03:42:34;;;;;;;6.97;5.18;;;;;;;10.78;71.32;102018.78;5034044;28;20041;-89
2022/01/02 03:45:02;;;;;;;7.15;5.63;;;;;;;10.95;71.14;102056.59;5034136;28;20039;-88
2022/01/02 03:47:28;;;;;;;6.70;5.85;;;;;;;10.99;71.39;102060.38;5026235;28;20037;-90
2022/01/02 03:49:59;;;;;;;8.02;5.65;;;;;;;10.87;71.06;102033.31;5015450;28;20438;-88
2022/01/02 03:52:27;;;;;;;7.25;5.57;;;;;;;10.98;71.39;102059.47;4998168;28;20033;-89
2022/01/02 03:54:53;;;;;;;7.85;5.95;;;;;;;10.65;71.37;102003.03;5033033;28;20044;-89
2022/01/02 03:57:22;;;;;;;8.00;5.93;;;;;;;10.96;71.41;102057.50;5016794;28;20029;-90
2022/01/02 03:59:49;;;;;;;7.35;5.47;;;;;;;10.78;71.04;102029.25;5043124;28;20094;-89
2022/01/02 04:02:14;;;;;;;7.28;5.10;;;;;;;10.93;71.54;102057.28;5034124;28;20029;-86
2022/01/02 04:04:40;;;;;;;9.23;5.47;;;;;;;10.78;71.31;102025.72;5049543;28;20037;-88
2022/01/02 04:07:09;;;;;;;6.85;5.47;;;;;;;10.84;71.25;102035.69;5051358;28;20043;-89
2022/01/02 04:09:35;;;;;;;7.35;5.45;;;;;;;10.82;71.48;102035.59;5044612;28;20029;-90
2022/01/02 04:12:01;;;;;;;7.22;5.70;;;;;;;10.71;71.29;102036.50;5017663;28;20182;-90
2022/01/02 04:14:26;;;;;;;7.90;5.28;;;;;;;10.84;71.13;102061.81;5033774;28;20041;-90
2022/01/02 04:16:52;;;;;;;7.88;5.88;;;;;;;10.55;71.15;102017.09;5030854;28;20037;-89
2022/01/02 04:19:17;;;;;;;7.55;5.45;;;;;;;10.99;71.53;102089.13;5048747;28;20049;-88
2022/01/02 04:21:43;;;;;;;8.70;5.97;;;;;;;10.95;71.56;102072.28;5016151;28;20034;-89
2022/01/02 04:24:11;;;;;;;7.80;5.80;;;;;;;10.67;71.29;102024.00;5041428;28;20527;-89
2022/01/02 04:26:37;;;;;;;7.18;5.60;;;;;;;11.00;71.54;102093.53;5051809;28;20087;-90
2022/01/02 04:29:05;;;;;;;6.78;5.32;;;;;;;10.88;71.58;102066.47;5034179;28;20029;-91
2022/01/02 04:31:34;;;;;;;6.95;5.63;;;;;;;10.99;71.39;102089.13;5024406;28;20127;-90
2022/01/02 04:34:05;;;;;;;7.10;5.70;;;;;;;10.98;71.76;102095.13;5014666;28;20558;-90
2022/01/02 04:36:53;;;;;;;7.75;6.07;;;;;;;11.02;71.50;102099.78;5014722;28;20065;-90
2022/01/02 04:39:22;;;;;;;7.30;5.30;;;;;;;10.95;71.20;102080.13;5034068;28;20090;-89
2022/01/02 04:41:47;;;;;;;7.80;5.60;;;;;;;10.99;71.57;102091.72;5017805;28;20025;-90
2022/01/02 04:44:16;;;;;;;7.78;5.75;;;;;;;10.97;71.51;102088.09;5021327;28;20024;-89
2022/01/02 04:46:43;;;;;;;7.30;5.63;;;;;;;10.89;71.46;102078.78;5019444;28;20033;-91
2022/01/02 04:49:08;;;;;;;7.68;5.85;;;;;;;11.00;71.20;102104.88;5018626;28;20029;-90
2022/01/02 04:51:36;;;;;;;7.75;5.50;;;;;;;10.90;71.72;102084.13;5028252;28;20033;-88
2022/01/02 04:54:02;;;;;;;7.65;5.70;;;;;;;10.79;71.45;102077.16;5054825;28;20052;-89
2022/01/02 04:56:27;;;;;;;8.10;5.80;;;;;;;11.01;71.37;102118.88;5020559;28;20060;-89
2022/01/02 04:58:53;;;;;;;7.32;5.57;;;;;;;10.69;71.38;102059.00;5035658;28;20467;-91
2022/01/02 05:01:20;;;;;;;7.83;5.97;;;;;;;10.65;71.31;102067.44;5034752;28;20067;-90
2022/01/02 05:03:46;;;;;;;7.55;5.60;;;;;;;10.89;71.72;102108.41;5051655;28;20056;-91
2022/01/02 05:06:13;;;;;;;7.95;5.40;;;;;;;10.41;71.08;102027.31;5054244;28;20057;-89
2022/01/02 05:08:44;;;;;;;7.20;5.60;;;;;;;10.93;71.49;102123.53;5037041;28;20581;-90
2022/01/02 05:11:14;;;;;;;8.18;5.78;;;;;;;10.98;71.54;102134.31;5020593;28;20402;-89
2022/01/02 05:13:40;;;;;;;7.40;5.35;;;;;;;10.67;71.32;102082.41;5054771;28;20020;-89
2022/01/02 05:16:08;;;;;;;6.70;5.30;;;;;;;10.73;71.26;102089.78;5036632;28;20124;-90
2022/01/02 05:18:34;;;;;;;7.00;5.25;;;;;;;10.61;71.43;102076.72;5041717;28;20450;-89
2022/01/02 05:21:02;;;;;;;7.32;5.22;;;;;;;10.74;71.57;102100.34;5054148;28;20021;-90
2022/01/02 05:23:29;;;;;;;6.93;5.18;;;;;;;11.02;71.28;102159.91;5012030;28;20495;-90
2022/01/02 05:25:55;;;;;;;9.20;5.53;;;;;;;11.00;71.60;102151.03;5000587;28;20037;-89
2022/01/02 05:28:22;;;;;;;6.80;5.18;;;;;;;10.80;71.44;102123.44;5000759;28;20033;-90
2022/01/02 05:30:47;;;;;;;;;;;;;;;11.09;71.34;102161.25;5017065;28;20021;-87
2022/01/02 05:33:13;;;;;;;7.35;5.70;;;;;;;10.91;71.53;102143.41;5053861;28;20455;-89
2022/01/02 05:35:38;;;;;;;7.70;5.65;;;;;;;10.86;71.51;102136.03;5036446;28;20033;-89
2022/01/02 05:38:04;;;;;;;6.15;5.38;;;;;;;10.82;71.48;102140.13;5007431;28;20060;-89
2022/01/02 05:40:32;;;;;;;7.00;5.30;;;;;;;10.96;71.48;102165.59;5017176;28;20033;-89
2022/01/02 05:43:06;;;;;;;6.95;5.32;;;;;;;10.89;71.43;102165.91;5016595;28;20033;-90
2022/01/02 05:45:32;;;;;;;7.05;5.28;;;;;;;11.03;71.62;102184.34;4999895;28;20029;-90
2022/01/02 05:47:57;;;;;;;6.72;5.25;;;;;;;10.67;71.42;102124.22;5046742;28;20029;-90
2022/01/02 05:50:24;;;;;;;8.05;5.50;;;;;;;11.04;71.35;102186.16;5018721;28;20025;-90
2022/01/02 05:52:50;;;;;;;7.18;5.13;;;;;;;10.82;71.50;102160.13;5015868;28;20061;-89
2022/01/02 05:55:19;;;;;;;7.13;5.55;;;;;;;10.99;71.80;102197.19;5000024;28;20053;-89
2022/01/02 05:57:49;;;;;;;8.25;5.40;;;;;;;10.90;71.37;102183.44;5016482;28;20029;-89
2022/01/02 06:00:15;;;;;;;7.25;5.32;;;;;;;10.86;71.32;102172.59;5039669;28;20515;-89
2022/01/02 06:02:43;;;;;;;6.25;4.97;;;;;;;10.62;71.49;102129.88;5019201;28;20130;-91
2022/01/02 06:05:12;;;;;;;6.68;5.43;;;;;;;11.01;71.90;102213.00;5019494;28;20564;-91
2022/01/02 06:07:53;;;;;;;7.35;5.20;;;;;;;10.91;71.55;102198.31;5038177;28;20026;-91
2022/01/02 06:10:56;;;;;;;6.93;5.30;;;;;;;11.04;71.75;102221.06;5007641;28;20040;-92
2022/01/02 06:13:22;;;;;;;6.30;5.15;;;;;;;10.83;71.38;102195.91;5019622;28;20083;-92
2022/01/02 06:15:49;;;;;;;6.72;5.28;;;;;;;10.81;71.77;102198.41;5003486;28;20033;-91
2022/01/02 06:18:15;;;;;;;9.25;5.95;;;;;;;11.02;71.63;102234.81;5034557;28;20025;-90
2022/01/02 06:20:51;;;;;;;6.60;5.07;;;;;;;10.99;71.27;102230.25;5029219;28;20040;-91
2022/01/02 06:23:21;;;;;;;6.50;5.10;;;;;;;10.98;71.47;102234.59;5014745;28;20029;-91
2022/01/02 06:25:48;;;;;;;6.43;5.28;;;;;;;11.00;71.43;102240.81;5044220;28;20036;-90
2022/01/02 06:28:16;;;;;;;6.78;4.93;;;;;;;11.02;71.56;102245.28;5033537;28;20081;-90
2022/01/02 06:30:43;;;;;;;6.70;5.50;;;;;;;11.00;71.55;102253.88;5033358;28;20068;-89
2022/01/02 06:33:09;;;;;;;7.07;5.00;;;;;;;10.68;71.58;102196.56;5048471;28;20029;-88
2022/01/02 06:35:35;;;;;;;7.15;5.40;;;;;;;10.86;71.85;102230.09;5024098;28;20044;-89
2022/01/02 06:38:13;;;;;;;6.47;4.93;;;;;;;10.89;71.75;102241.72;5019130;28;20036;-91
2022/01/02 06:40:39;;;;;;;6.78;5.25;;;;;;;11.02;71.56;102274.03;5032075;28;20120;-91
2022/01/02 06:43:06;;;;;;;6.15;4.95;;;;;;;11.02;71.70;102269.69;5052205;28;20195;-89
2022/01/02 06:45:36;;;;;;;6.57;4.88;;;;;;;11.00;71.92;102279.13;5052094;28;20040;-91
2022/01/02 06:48:03;;;;;;;5.93;4.65;;;;;;;10.72;71.71;102244.75;5051367;28;20033;-88
2022/01/02 06:50:29;;;;;;;6.75;4.88;;;;;;;10.63;71.72;102233.59;5040105;28;20183;-87
2022/01/02 06:52:55;;;;;;;7.18;5.30;;;;;;;11.03;71.73;102296.75;4998219;28;20018;-87
2022/01/02 06:55:20;;;;;;;6.82;4.82;;;;;;;10.67;71.42;102236.56;5024009;28;20037;-87
2022/01/02 06:57:46;;;;;;;6.15;4.95;;;;;;;10.70;71.32;102256.78;5049818;28;20036;-87
2022/01/02 07:00:12;;;;;;;6.65;5.15;;;;;;;10.69;71.69;102254.94;5051981;28;20037;-89
2022/01/02 07:02:39;;;;;;;6.32;4.78;;;;;;;10.85;71.59;102294.53;5051137;28;20059;-89
2022/01/02 07:05:06;;;;;;;7.18;5.25;;;;;;;10.50;71.75;102232.63;5032999;28;20039;-89
2022/01/02 07:07:35;;;;;;;6.03;4.68;;;;;;;10.73;71.61;102284.06;5048490;28;20029;-89
2022/01/02 07:10:01;;;;;;;6.78;5.22;;;;;;;10.87;71.68;102312.97;5045535;28;20774;-88
2022/01/02 07:12:28;;;;;;;6.60;5.10;;;;;;;10.94;71.57;102326.63;5029071;28;20060;-89
2022/01/02 07:14:53;;;;;;;6.38;4.57;;;;;;;10.76;71.82;102291.22;5031149;28;20052;-89
2022/01/02 07:17:19;;;;;;;7.22;5.15;;;;;;;10.89;71.67;102320.13;5031671;28;20486;-88
2022/01/02 07:19:45;;;;;;;5.75;4.75;;;;;;;11.05;71.42;102345.75;5050842;28;20025;-88
2022/01/02 07:22:10;;;;;;;5.78;4.95;;;;;;;11.06;71.65;102341.44;5032510;28;20409;-88
2022/01/02 07:24:36;;;;;;;6.82;5.03;;;;;;;10.73;71.43;102294.53;5045090;28;20033;-88
2022/01/02 07:27:02;;;;;;;6.80;5.07;;;;;;;10.95;71.53;102333.66;5033931;28;20032;-88
2022/01/02 07:29:27;;;;;;;7.20;5.43;;;;;;;10.62;71.52;102270.94;5034324;28;20414;-89
2022/01/02 07:31:54;;;;;;;6.40;4.93;;;;;;;11.02;71.46;102335.06;5033343;28;20490;-90
2022/01/02 07:34:20;;;;;;;6.15;4.65;;;;;;;10.71;71.80;102284.72;5033782;28;20040;-88
2022/01/02 07:36:48;;;;;;;6.55;4.93;;;;;;;10.90;71.75;102332.41;5031734;28;20025;-89
2022/01/02 07:39:23;;;;;;;6.60;4.78;;;;;;;10.47;71.65;102255.88;5006763;28;20027;-89
2022/01/02 07:41:53;;;;;;;5.72;5.00;;;;;;;10.91;71.59;102334.22;5014019;28;20094;-92
2022/01/02 07:44:20;;;;;;;5.75;4.78;;;;;;;10.49;71.30;102250.78;5051924;28;20087;-88
2022/01/02 07:46:45;;;;;;;7.28;5.20;;;;;;;10.80;71.44;102307.25;5033980;28;20025;-87
2022/01/02 07:49:11;;;;;;;7.65;5.78;;;;;;;10.65;71.25;102285.16;5020270;28;20052;-88
2022/01/02 07:51:39;;;;;;;7.50;5.30;;;;;;;10.91;71.21;102336.84;4997829;28;20514;-88
2022/01/02 07:54:05;;;;;;;7.50;5.40;;;;;;;10.89;71.40;102332.28;4997437;28;20038;-87
2022/01/02 07:56:30;;;;;;;6.80;5.40;;;;;;;11.09;71.33;102363.50;5030443;28;20041;-88
2022/01/02 07:58:58;;;;;;;7.47;5.53;;;;;;;11.12;71.29;102368.06;5027885;28;20124;-87
2022/01/02 08:01:24;;;;;;;6.60;5.28;;;;;;;11.00;71.13;102353.22;5016732;28;20031;-87
2022/01/02 08:03:51;;;;;;;7.53;5.60;;;;;;;10.94;71.39;102347.53;5049308;28;20029;-91
2022/01/02 08:06:18;;;;;;;6.43;5.10;;;;;;;11.07;71.47;102380.78;5029951;28;20017;-89
2022/01/02 08:08:45;;;;;;;7.97;5.78;;;;;;;11.10;71.57;102377.47;5015994;28;20031;-90
2022/01/02 08:11:15;;;;;;;8.30;5.82;;;;;;;10.96;71.43;102361.66;5033350;28;20090;-89
2022/01/02 08:13:42;;;;;;;7.25;5.13;;;;;;;10.59;71.42;102297.75;5033474;28;20482;-89
2022/01/02 08:16:12;;;;;;;6.75;5.03;;;;;;;10.78;71.91;102334.06;5032042;28;20395;-89
2022/01/02 08:18:38;;;;;;;7.28;5.45;;;;;;;10.92;71.80;102363.88;5032877;28;20068;-87
2022/01/02 08:21:04;;;;;;;6.90;5.47;;;;;;;10.80;71.58;102327.25;5020730;28;20036;-84
2022/01/02 08:23:30;;;;;;;7.85;5.55;;;;;;;10.84;71.34;102337.16;5055053;28;20033;-89
2022/01/02 08:25:55;;;;;;;7.68;5.32;;;;;;;10.97;71.44;102367.78;5035918;28;20052;-87
2022/01/02 08:28:21;;;;;;;7.85;5.57;;;;;;;10.79;71.56;102339.44;5036168;28;20604;-87
2022/01/02 08:30:47;;;;;;;7.82;4.82;;;;;;;11.07;71.49;102399.09;5037452;28;20029;-88
2022/01/02 08:33:14;;;;;;;7.28;5.47;;;;;;;11.10;71.52;102388.84;5019618;28;20464;-88
2022/01/02 08:35:42;;;;;;;6.30;5.30;;;;;;;11.10;71.59;102391.47;5036636;28;20017;-88
2022/01/02 08:38:08;;;;;;;7.28;5.47;;;;;;;11.11;71.58;102379.28;5037508;28;20029;-87
2022/01/02 08:40:35;;;;;;;7.85;5.78;;;;;;;10.85;71.76;102338.97;5037055;28;20036;-86
2022/01/02 08:43:01;;;;;;;7.82;5.85;;;;;;;10.82;72.00;102343.97;5049246;28;20085;-89
2022/01/02 08:45:27;;;;;;;8.13;5.78;;;;;;;10.82;71.50;102336.13;5020000;28;20119;-88
2022/01/02 08:48:05;;;;;;;7.57;5.88;;;;;;;11.13;72.03;102396.00;5019384;28;20041;-89
2022/01/02 08:50:32;;;;;;;8.93;5.85;;;;;;;10.54;71.77;102299.06;5037572;28;20028;-88
2022/01/02 08:52:58;;;;;;;9.35;6.68;;;;;;;10.88;71.98;102357.53;5032044;28;20029;-91
2022/01/02 08:55:26;;;;;;;8.10;5.80;;;;;;;10.49;72.06;102297.81;5036217;28;20510;-89
2022/01/02 08:57:52;;;;;;;7.43;5.72;;;;;;;10.67;71.55;102327.06;5036537;28;20086;-89
2022/01/02 09:00:18;;;;;;;7.90;5.78;;;;;;;11.13;71.87;102401.25;5040922;28;20053;-90
2022/01/02 09:02:55;;;;;;;7.68;6.10;;;;;;;11.06;71.80;102372.81;5054010;28;20104;-91
2022/01/02 09:05:21;;;;;;;7.75;6.20;;;;;;;10.91;71.91;102362.06;5052361;28;20091;-89
2022/01/02 09:08:26;;;;;;;9.70;6.80;;;;;;;11.18;71.70;102400.81;5018713;28;20123;-94
2022/01/02 09:11:38;;;;;;;7.88;6.10;;;;;;;11.18;72.00;102415.59;5035700;28;20025;-93
2022/01/02 09:14:04;;;;;;;7.43;6.00;;;;;;;11.17;71.79;102412.06;5037214;28;20057;-90
2022/01/02 09:16:30;;;;;;;9.57;6.40;;;;;;;10.89;71.81;102359.31;5025790;28;20106;-90
2022/01/02 09:18:59;;;;;;;;;;;;;;;11.19;71.74;102407.84;5037639;28;20179;-90
2022/01/02 09:21:25;;;;;;;9.20;7.18;;;;;;;10.81;72.45;102368.25;5052621;28;19959;-90
2022/01/02 09:23:50;;;;;;;8.98;6.70;;;;;;;11.14;71.92;102408.31;5029447;28;20024;-84
2022/01/02 09:26:16;;;;;;;11.00;7.40;;;;;;;11.07;72.29;102405.97;5036139;28;20039;-86
2022/01/02 09:28:42;;;;;;;8.00;6.25;;;;;;;10.97;72.14;102379.13;5027991;28;20749;-87
2022/01/02 09:31:08;;;;;;;9.18;6.53;;;;;;;11.15;72.17;102402.28;5049394;28;20031;-84
2022/01/02 09:33:33;;;;;;;9.30;6.65;;;;;;;10.97;72.08;102376.53;5053529;28;20583;-86
2022/01/02 09:35:59;;;;;;;10.48;7.20;;;;;;;10.95;71.73;102374.59;5050311;28;20034;-87
2022/01/02 09:38:26;;;;;;;10.38;6.78;;;;;;;11.15;71.69;102407.50;5042752;28;20094;-87
2022/01/02 09:40:52;;;;;;;8.88;6.35;;;;;;;11.05;71.96;102387.59;5008554;28;20038;-86
2022/01/02 09:43:18;;;;;;;12.00;6.75;;;;;;;11.09;71.38;102394.88;5044641;28;20464;-89
2022/01/02 09:45:46;;;;;;;9.77;6.38;;;;;;;11.08;71.68;102394.75;5033367;28;20041;-89
2022/01/02 09:48:13;;;;;;;8.15;6.65;;;;;;;10.94;71.89;102360.63;5015057;28;20513;-89
2022/01/02 09:50:39;;;;;;;8.65;5.85;;;;;;;11.20;71.65;102421.88;5032307;28;20422;-90
2022/01/02 09:53:05;;;;;;;7.60;6.00;;;;;;;11.20;71.44;102408.78;5033562;28;20459;-88
2022/01/02 09:55:31;;;;;;;8.98;6.25;;;;;;;11.15;71.97;102399.66;5034486;28;20068;-86
2022/01/02 09:58:03;;;;;;;8.00;6.20;;;;;;;10.97;71.86;102363.47;5045943;28;20057;-88
2022/01/02 10:00:29;;;;;;;8.77;6.65;;;;;;;11.16;71.37;102391.03;5026366;28;20450;-89
2022/01/02 10:03:02;;;;;;;8.98;6.57;;;;;;;11.20;71.34;102401.84;5025038;28;20498;-88
2022/01/02 10:05:29;;;;;;;8.48;6.55;;;;;;;10.98;71.68;102354.84;5021812;28;20040;-89
2022/01/02 10:07:57;;;;;;;8.25;6.38;;;;;;;11.21;71.54;102395.81;4999302;28;20116;-87
2022/01/02 10:10:33;;;;;;;8.68;6.35;;;;;;;11.03;71.52;102357.81;5015661;28;20554;-89
2022/01/02 10:13:03;;;;;;;10.07;6.38;;;;;;;11.04;71.50;102374.38;5015892;28;20029;-89
2022/01/02 10:15:29;;;;;;;9.15;6.75;;;;;;;11.03;71.38;102368.25;5022106;28;20040;-87
2022/01/02 10:18:09;;;;;;;8.40;6.30;;;;;;;11.21;71.81;102398.41;5034246;28;20028;-86
2022/01/02 10:20:41;;;;;;;8.05;6.10;;;;;;;11.20;71.67;102396.63;5049432;28;20462;-87
2022/01/02 10:23:13;;;;;;;9.82;6.85;;;;;;;11.19;71.54;102392.16;5032478;28;20116;-88
2022/01/02 10:25:56;;;;;;;8.88;6.60;;;;;;;11.12;71.63;102370.66;5048995;28;20691;-87
2022/01/02 10:28:22;;;;;;;9.07;6.75;;;;;;;11.23;71.35;102390.72;5051093;28;20415;-88
2022/01/02 10:30:50;;;;;;;;;;;;;;;11.24;71.59;102386.38;5041425;28;20517;-89
2022/01/02 10:33:16;;;;;;;8.00;6.15;;;;;;;11.23;71.34;102377.63;5032218;28;19917;-87
2022/01/02 10:35:42;;;;;;;8.07;6.35;;;;;;;11.16;71.25;102373.63;5035986;28;20030;-88
2022/01/02 10:38:17;;;;;;;8.85;6.45;;;;;;;10.95;71.42;102335.38;5034141;28;20037;-89
2022/01/02 10:40:44;;;;;;;8.32;6.20;;;;;;;11.06;71.36;102349.28;5017813;28;20032;-89
2022/01/02 10:43:28;;;;;;;;;;;;;;;11.33;71.10;102381.88;5017791;28;20032;-91
2022/01/02 10:45:58;;;;;;;8.25;6.05;;;;;;;11.24;71.13;102382.09;5052118;28;19913;-91
2022/01/02 10:48:37;;;;;;;9.00;6.25;;;;;;;11.25;71.09;102383.00;5016151;28;20022;-91
2022/01/02 10:51:04;;;;;;;8.60;6.50;;;;;;;11.24;71.25;102376.84;5023266;28;20572;-85
2022/01/02 10:54:03;;;;;;;7.72;6.07;;;;;;;11.24;71.37;102382.09;5034035;28;20131;-90
2022/01/02 10:56:32;;;;;;;9.43;6.38;;;;;;;11.08;71.75;102342.47;5019727;28;20037;-89
2022/01/02 10:58:58;;;;;;;7.93;6.18;;;;;;;11.00;71.42;102327.09;5032952;28;20048;-89
2022/01/02 11:04:54;;;;;;;7.82;6.05;;;;;;;11.12;71.34;102334.97;5046202;28;20040;-88
2022/01/02 11:07:23;;;;;;;10.07;7.00;;;;;;;10.99;71.47;102316.53;4998389;28;20143;-88
2022/01/02 11:09:53;;;;;;;8.50;6.53;;;;;;;11.02;71.41;102324.59;5015208;28;20052;-88
2022/01/02 11:12:19;;;;;;;7.72;5.90;;;;;;;11.12;71.29;102345.44;5037130;28;20029;-89
2022/01/02 11:14:47;;;;;;;8.13;6.03;;;;;;;11.04;71.53;102327.34;5014124;28;20033;-88
2022/01/02 11:17:13;;;;;;;9.07;6.28;;;;;;;10.82;71.53;102294.31;5002243;28;20025;-88
2022/01/02 11:19:40;;;;;;;;;;;;;;;11.30;71.31;102365.94;5031518;28;20021;-87
2022/01/02 11:22:11;;;;;;;9.35;6.30;;;;;;;11.04;71.42;102329.94;5023613;28;19909;-87
2022/01/02 11:24:45;;;;;;;10.05;6.32;;;;;;;11.20;71.74;102377.41;5037263;28;20092;-89
2022/01/02 11:27:16;;;;;;;9.23;6.60;;;;;;;10.98;71.42;102339.16;5014539;28;20061;-87
2022/01/02 11:29:41;;;;;;;7.40;5.93;;;;;;;10.98;71.11;102330.38;5051439;28;20124;-87
2022/01/02 11:32:26;;;;;;;8.15;5.90;;;;;;;10.96;71.79;102338.13;5033622;28;20040;-88
2022/01/02 11:34:53;;;;;;;8.43;6.53;;;;;;;11.27;71.20;102386.63;5051880;28;20596;-88
2022/01/02 11:37:23;;;;;;;7.80;6.00;;;;;;;11.12;71.22;102362.84;5051631;28;20025;-87
2022/01/02 11:40:01;;;;;;;7.68;6.03;;;;;;;11.27;71.16;102384.91;5027643;28;20049;-88
2022/01/02 11:42:40;;;;;;;8.23;5.90;;;;;;;11.06;71.07;102342.34;5020131;28;20037;-89
2022/01/02 11:45:11;;;;;;;9.77;6.85;;;;;;;11.27;71.11;102376.19;5044592;28;20029;-87
2022/01/02 11:47:44;;;;;;;10.80;6.90;;;;;;;11.24;71.13;102376.84;5029905;28;20037;-88
2022/01/02 11:50:32;;;;;;;8.43;6.22;;;;;;;11.26;71.51;102380.50;5029918;28;20036;-88